createdAt,value
2017-04-29T00:00:17.735Z,1011.08
2017-04-29T00:00:58.256Z,1011.05
2017-04-29T00:01:38.781Z,1011.04
2017-04-29T00:02:19.300Z,1011.07
2017-04-29T00:02:59.825Z,1011.06
2017-04-29T00:03:40.337Z,1011.07
2017-04-29T00:04:20.863Z,1011.06
2017-04-29T00:05:01.404Z,1011.02
2017-04-29T00:05:41.929Z,1011.08
2017-04-29T00:06:22.439Z,1011.04
2017-04-29T00:07:02.964Z,1011.09
2017-04-29T00:07:43.496Z,1011.04
2017-04-29T00:08:24.031Z,1011.06
2017-04-29T00:09:04.559Z,1011.05
2017-04-29T00:09:45.088Z,1011.07
2017-04-29T00:10:25.618Z,1011.1
2017-04-29T00:11:06.154Z,1011.07
2017-04-29T00:11:46.688Z,1011.08
2017-04-29T00:12:27.204Z,1011.09
2017-04-29T00:13:07.741Z,1011.12
2017-04-29T00:13:48.261Z,1011.11
2017-04-29T00:14:28.786Z,1011.1
2017-04-29T00:15:09.314Z,1011.1
2017-04-29T00:15:49.844Z,1011.09
2017-04-29T00:16:30.439Z,1011.11
2017-04-29T00:17:10.961Z,1011.13
2017-04-29T00:17:51.473Z,1011.08
2017-04-29T00:18:31.986Z,1011.14
2017-04-29T00:19:12.516Z,1011.14
2017-04-29T00:19:53.044Z,1011.13
2017-04-29T00:20:33.565Z,1011.12
2017-04-29T00:21:14.092Z,1011.12
2017-04-29T00:21:54.601Z,1011.12
2017-04-29T00:22:35.124Z,1011.1
2017-04-29T00:23:15.678Z,1011.12
2017-04-29T00:23:56.208Z,1011.12
2017-04-29T00:24:36.724Z,1011.11
2017-04-29T00:25:17.237Z,1011.13
2017-04-29T00:25:57.761Z,1011.17
2017-04-29T00:26:38.277Z,1011.17
2017-04-29T00:27:18.799Z,1011.17
2017-04-29T00:27:59.320Z,1011.19
2017-04-29T00:28:39.855Z,1011.2
2017-04-29T00:29:20.393Z,1011.2
2017-04-29T00:30:00.921Z,1011.22
2017-04-29T00:30:41.457Z,1011.19
2017-04-29T00:31:21.985Z,1011.23
2017-04-29T00:32:02.493Z,1011.23
2017-04-29T00:32:42.987Z,1011.21
2017-04-29T00:33:23.522Z,1011.24
2017-04-29T00:34:04.049Z,1011.22
2017-04-29T00:34:44.575Z,1011.23
2017-04-29T00:35:25.109Z,1011.22
2017-04-29T00:36:05.632Z,1011.26
2017-04-29T00:36:46.168Z,1011.25
2017-04-29T00:37:26.714Z,1011.26
2017-04-29T00:38:07.254Z,1011.28
2017-04-29T00:38:47.768Z,1011.26
2017-04-29T00:39:28.303Z,1011.32
2017-04-29T00:40:08.817Z,1011.31
2017-04-29T00:40:49.331Z,1011.36
2017-04-29T00:41:29.847Z,1011.37
2017-04-29T00:42:10.362Z,1011.39
2017-04-29T00:42:50.874Z,1011.39
2017-04-29T00:43:31.374Z,1011.4
2017-04-29T00:44:11.900Z,1011.37
2017-04-29T00:44:52.412Z,1011.36
2017-04-29T00:45:32.936Z,1011.38
2017-04-29T00:46:13.469Z,1011.36
2017-04-29T00:46:53.975Z,1011.34
2017-04-29T00:47:34.495Z,1011.38
2017-04-29T00:48:15.036Z,1011.37
2017-04-29T00:48:55.563Z,1011.38
2017-04-29T00:49:36.071Z,1011.38
2017-04-29T00:50:16.598Z,1011.4
2017-04-29T00:50:57.186Z,1011.37
2017-04-29T00:51:37.725Z,1011.37
2017-04-29T00:52:18.259Z,1011.36
2017-04-29T00:52:58.779Z,1011.37
2017-04-29T00:53:39.306Z,1011.33
2017-04-29T00:54:19.828Z,1011.35
2017-04-29T00:55:00.351Z,1011.36
2017-04-29T00:55:40.877Z,1011.35
2017-04-29T00:56:21.411Z,1011.32
2017-04-29T00:57:01.967Z,1011.32
2017-04-29T00:57:42.468Z,1011.31
2017-04-29T00:58:22.997Z,1011.32
2017-04-29T00:59:03.539Z,1011.3
2017-04-29T00:59:44.079Z,1011.34
2017-04-29T01:00:24.618Z,1011.33
2017-04-29T01:01:05.160Z,1011.35
2017-04-29T01:01:45.657Z,1011.38
2017-04-29T01:02:26.194Z,1011.34
2017-04-29T01:03:06.729Z,1011.34
2017-04-29T01:03:47.238Z,1011.38
2017-04-29T01:04:27.760Z,1011.38
2017-04-29T01:05:08.297Z,1011.36
2017-04-29T01:05:48.831Z,1011.39
2017-04-29T01:06:29.367Z,1011.37
2017-04-29T01:07:09.890Z,1011.37
2017-04-29T01:07:50.411Z,1011.38
2017-04-29T01:08:30.949Z,1011.39
2017-04-29T01:09:11.484Z,1011.38
2017-04-29T01:09:52.025Z,1011.4
2017-04-29T01:10:32.555Z,1011.33
2017-04-29T01:11:13.090Z,1011.37
2017-04-29T01:11:53.610Z,1011.38
2017-04-29T01:12:34.142Z,1011.32
2017-04-29T01:13:14.688Z,1011.35
2017-04-29T01:13:55.228Z,1011.37
2017-04-29T01:14:35.733Z,1011.4
2017-04-29T01:15:16.249Z,1011.35
2017-04-29T01:15:56.789Z,1011.35
2017-04-29T01:16:37.331Z,1011.34
2017-04-29T01:17:17.869Z,1011.35
2017-04-29T01:17:58.368Z,1011.36
2017-04-29T01:18:38.902Z,1011.35
2017-04-29T01:19:19.436Z,1011.32
2017-04-29T01:19:59.972Z,1011.36
2017-04-29T01:20:40.497Z,1011.3
2017-04-29T01:21:21.024Z,1011.35
2017-04-29T01:22:01.541Z,1011.33
2017-04-29T01:22:42.073Z,1011.36
2017-04-29T01:23:22.596Z,1011.35
2017-04-29T01:24:03.107Z,1011.37
2017-04-29T01:24:43.638Z,1011.4
2017-04-29T01:25:24.163Z,1011.43
2017-04-29T01:26:04.686Z,1011.39
2017-04-29T01:26:45.216Z,1011.36
2017-04-29T01:27:25.749Z,1011.4
2017-04-29T01:28:06.287Z,1011.37
2017-04-29T01:28:46.818Z,1011.38
2017-04-29T01:29:27.348Z,1011.41
2017-04-29T01:30:07.879Z,1011.37
2017-04-29T01:30:48.412Z,1011.39
2017-04-29T01:31:28.946Z,1011.38
2017-04-29T01:32:09.489Z,1011.39
2017-04-29T01:32:56.745Z,1011.36
2017-04-29T01:33:37.269Z,1011.37
2017-04-29T01:34:17.804Z,1011.39
2017-04-29T01:34:58.338Z,1011.35
2017-04-29T01:35:38.874Z,1011.39
2017-04-29T01:36:19.414Z,1011.42
2017-04-29T01:36:59.940Z,1011.4
2017-04-29T01:37:40.472Z,1011.45
2017-04-29T01:38:21.009Z,1011.4
2017-04-29T01:39:01.548Z,1011.41
2017-04-29T01:39:42.078Z,1011.43
2017-04-29T01:40:22.613Z,1011.46
2017-04-29T01:41:03.142Z,1011.45
2017-04-29T01:41:43.681Z,1011.48
2017-04-29T01:42:24.215Z,1011.47
2017-04-29T01:43:04.728Z,1011.47
2017-04-29T01:43:45.254Z,1011.5
2017-04-29T01:44:25.793Z,1011.53
2017-04-29T01:45:06.339Z,1011.52
2017-04-29T01:45:46.871Z,1011.52
2017-04-29T01:46:27.406Z,1011.51
2017-04-29T01:47:07.946Z,1011.55
2017-04-29T01:47:48.468Z,1011.53
2017-04-29T01:48:28.996Z,1011.58
2017-04-29T01:49:09.523Z,1011.59
2017-04-29T01:49:50.053Z,1011.59
2017-04-29T01:50:30.583Z,1011.58
2017-04-29T01:51:11.120Z,1011.59
2017-04-29T01:51:51.648Z,1011.61
2017-04-29T01:52:32.177Z,1011.59
2017-04-29T01:53:12.714Z,1011.66
2017-04-29T01:53:53.249Z,1011.65
2017-04-29T01:54:33.788Z,1011.69
2017-04-29T01:55:14.306Z,1011.69
2017-04-29T01:55:54.841Z,1011.69
2017-04-29T01:56:35.382Z,1011.67
2017-04-29T01:57:15.917Z,1011.7
2017-04-29T01:57:56.453Z,1011.74
2017-04-29T01:58:36.989Z,1011.7
2017-04-29T01:59:17.521Z,1011.72
2017-04-29T01:59:58.047Z,1011.72
2017-04-29T02:00:38.572Z,1011.73
2017-04-29T02:01:19.096Z,1011.74
2017-04-29T02:01:59.638Z,1011.74
2017-04-29T02:02:40.152Z,1011.77
2017-04-29T02:03:20.678Z,1011.72
2017-04-29T02:04:01.190Z,1011.74
2017-04-29T02:04:41.727Z,1011.75
2017-04-29T02:05:22.259Z,1011.73
2017-04-29T02:06:02.788Z,1011.73
2017-04-29T02:06:43.294Z,1011.68
2017-04-29T02:07:23.808Z,1011.68
2017-04-29T02:08:04.346Z,1011.69
2017-04-29T02:08:44.873Z,1011.68
2017-04-29T02:09:25.400Z,1011.7
2017-04-29T02:10:05.911Z,1011.7
2017-04-29T02:10:46.436Z,1011.72
2017-04-29T02:11:26.954Z,1011.7
2017-04-29T02:12:07.483Z,1011.72
2017-04-29T02:12:48.006Z,1011.7
2017-04-29T02:13:28.538Z,1011.69
2017-04-29T02:14:09.068Z,1011.66
2017-04-29T02:14:49.604Z,1011.67
2017-04-29T02:15:30.133Z,1011.73
2017-04-29T02:16:10.660Z,1011.72
2017-04-29T02:16:51.199Z,1011.74
2017-04-29T02:17:31.734Z,1011.77
2017-04-29T02:18:12.272Z,1011.74
2017-04-29T02:18:52.793Z,1011.77
2017-04-29T02:19:33.322Z,1011.8
2017-04-29T02:20:13.826Z,1011.75
2017-04-29T02:20:54.363Z,1011.77
2017-04-29T02:21:34.894Z,1011.77
2017-04-29T02:22:15.439Z,1011.78
2017-04-29T02:22:55.967Z,1011.76
2017-04-29T02:23:36.493Z,1011.78
2017-04-29T02:24:17.017Z,1011.77
2017-04-29T02:24:57.530Z,1011.78
2017-04-29T02:25:38.046Z,1011.78
2017-04-29T02:26:18.574Z,1011.8
2017-04-29T02:26:59.090Z,1011.76
2017-04-29T02:27:39.603Z,1011.79
2017-04-29T02:28:20.129Z,1011.79
2017-04-29T02:29:00.671Z,1011.79
2017-04-29T02:29:41.205Z,1011.79
2017-04-29T02:30:21.738Z,1011.79
2017-04-29T02:31:02.258Z,1011.81
2017-04-29T02:31:42.791Z,1011.75
2017-04-29T02:32:23.313Z,1011.78
2017-04-29T02:33:03.905Z,1011.76
2017-04-29T02:33:44.429Z,1011.78
2017-04-29T02:34:24.957Z,1011.81
2017-04-29T02:35:05.480Z,1011.79
2017-04-29T02:35:46.016Z,1011.82
2017-04-29T02:36:26.558Z,1011.82
2017-04-29T02:37:07.091Z,1011.8
2017-04-29T02:37:47.615Z,1011.8
2017-04-29T02:38:28.150Z,1011.83
2017-04-29T02:39:08.678Z,1011.8
2017-04-29T02:39:49.215Z,1011.8
2017-04-29T02:40:29.758Z,1011.81
2017-04-29T02:41:10.292Z,1011.83
2017-04-29T02:41:50.818Z,1011.82
2017-04-29T02:42:31.333Z,1011.83
2017-04-29T02:43:11.860Z,1011.8
2017-04-29T02:43:52.388Z,1011.83
2017-04-29T02:44:32.921Z,1011.82
2017-04-29T02:45:13.447Z,1011.8
2017-04-29T02:45:53.967Z,1011.81
2017-04-29T02:46:34.510Z,1011.82
2017-04-29T02:47:15.045Z,1011.82
2017-04-29T02:47:55.552Z,1011.85
2017-04-29T02:48:36.074Z,1011.86
2017-04-29T02:49:16.598Z,1011.87
2017-04-29T02:49:57.132Z,1011.82
2017-04-29T02:50:37.656Z,1011.87
2017-04-29T02:51:18.187Z,1011.87
2017-04-29T02:51:58.710Z,1011.85
2017-04-29T02:52:39.229Z,1011.9
2017-04-29T02:53:19.741Z,1011.93
2017-04-29T02:54:00.262Z,1011.91
2017-04-29T02:54:40.797Z,1011.92
2017-04-29T02:55:21.300Z,1011.93
2017-04-29T02:56:01.814Z,1011.93
2017-04-29T02:56:42.339Z,1011.94
2017-04-29T02:57:22.854Z,1011.95
2017-04-29T02:58:03.384Z,1011.94
2017-04-29T02:58:43.918Z,1011.92
2017-04-29T02:59:24.452Z,1011.94
2017-04-29T03:00:04.994Z,1011.93
2017-04-29T03:00:45.510Z,1011.94
2017-04-29T03:01:26.042Z,1011.98
2017-04-29T03:02:06.575Z,1011.93
2017-04-29T03:02:47.110Z,1011.96
2017-04-29T03:03:27.646Z,1011.97
2017-04-29T03:04:08.162Z,1012
2017-04-29T03:04:48.688Z,1012.02
2017-04-29T03:05:29.217Z,1011.96
2017-04-29T03:06:09.751Z,1011.95
2017-04-29T03:06:50.279Z,1011.98
2017-04-29T03:07:30.803Z,1011.98
2017-04-29T03:08:11.342Z,1011.99
2017-04-29T03:08:51.868Z,1011.96
2017-04-29T03:09:32.395Z,1011.97
2017-04-29T03:10:12.908Z,1011.98
2017-04-29T03:10:53.432Z,1011.96
2017-04-29T03:11:33.953Z,1011.98
2017-04-29T03:12:14.483Z,1011.96
2017-04-29T03:12:54.993Z,1011.99
2017-04-29T03:13:35.525Z,1012.01
2017-04-29T03:14:16.048Z,1012
2017-04-29T03:14:56.571Z,1012.01
2017-04-29T03:15:37.118Z,1012.03
2017-04-29T03:16:17.629Z,1011.99
2017-04-29T03:16:58.174Z,1011.99
2017-04-29T03:17:38.710Z,1011.95
2017-04-29T03:18:19.252Z,1011.97
2017-04-29T03:18:59.770Z,1011.99
2017-04-29T03:19:40.298Z,1011.98
2017-04-29T03:20:20.833Z,1011.98
2017-04-29T03:21:01.367Z,1012
2017-04-29T03:21:41.893Z,1012.01
2017-04-29T03:22:22.417Z,1012.01
2017-04-29T03:23:02.949Z,1011.99
2017-04-29T03:23:43.478Z,1012.01
2017-04-29T03:24:24.012Z,1012.05
2017-04-29T03:25:04.555Z,1012.03
2017-04-29T03:25:45.075Z,1012.02
2017-04-29T03:26:25.601Z,1012.07
2017-04-29T03:27:06.134Z,1012.02
2017-04-29T03:27:46.662Z,1012.02
2017-04-29T03:28:27.163Z,1012.02
2017-04-29T03:29:07.689Z,1012.02
2017-04-29T03:29:48.188Z,1012.04
2017-04-29T03:30:28.755Z,1012.02
2017-04-29T03:31:09.294Z,1012
2017-04-29T03:31:49.850Z,1012.04
2017-04-29T03:32:30.384Z,1012.01
2017-04-29T03:33:10.931Z,1012.04
2017-04-29T03:33:51.428Z,1012.02
2017-04-29T03:34:31.966Z,1012.06
2017-04-29T03:35:12.487Z,1012.04
2017-04-29T03:35:53.034Z,1012.06
2017-04-29T03:36:33.521Z,1012.05
2017-04-29T03:37:14.063Z,1012.04
2017-04-29T03:37:54.614Z,1012.1
2017-04-29T03:38:35.199Z,1012.07
2017-04-29T03:39:15.736Z,1012.06
2017-04-29T03:39:56.291Z,1012.07
2017-04-29T03:40:36.832Z,1012.1
2017-04-29T03:41:17.347Z,1012.05
2017-04-29T03:41:57.881Z,1012.06
2017-04-29T03:42:38.392Z,1012.08
2017-04-29T03:43:18.912Z,1012.06
2017-04-29T03:43:59.429Z,1012.08
2017-04-29T03:44:39.962Z,1012.04
2017-04-29T03:45:20.458Z,1012.05
2017-04-29T03:46:00.998Z,1012.08
2017-04-29T03:46:41.541Z,1012.07
2017-04-29T03:47:22.104Z,1012.05
2017-04-29T03:48:02.595Z,1012.09
2017-04-29T03:48:43.100Z,1012.1
2017-04-29T03:49:23.591Z,1012.06
2017-04-29T03:50:04.118Z,1012.14
2017-04-29T03:50:44.620Z,1012.11
2017-04-29T03:51:25.133Z,1012.12
2017-04-29T03:52:05.658Z,1012.13
2017-04-29T03:52:46.153Z,1012.12
2017-04-29T03:53:26.655Z,1012.14
2017-04-29T03:54:07.184Z,1012.15
2017-04-29T03:54:47.690Z,1012.17
2017-04-29T03:55:28.226Z,1012.18
2017-04-29T03:56:08.755Z,1012.16
2017-04-29T03:56:49.328Z,1012.2
2017-04-29T03:57:29.822Z,1012.14
2017-04-29T03:58:10.337Z,1012.15
2017-04-29T03:58:50.859Z,1012.18
2017-04-29T03:59:31.386Z,1012.18
2017-04-29T04:00:11.915Z,1012.17
2017-04-29T04:00:52.423Z,1012.17
2017-04-29T04:01:32.963Z,1012.17
2017-04-29T04:02:13.489Z,1012.19
2017-04-29T04:02:54.027Z,1012.21
2017-04-29T04:03:34.544Z,1012.21
2017-04-29T04:04:15.086Z,1012.19
2017-04-29T04:04:55.605Z,1012.21
2017-04-29T04:05:36.141Z,1012.2
2017-04-29T04:06:16.669Z,1012.23
2017-04-29T04:06:57.189Z,1012.22
2017-04-29T04:07:37.692Z,1012.22
2017-04-29T04:08:18.219Z,1012.24
2017-04-29T04:08:58.736Z,1012.26
2017-04-29T04:09:39.286Z,1012.23
2017-04-29T04:10:19.792Z,1012.22
2017-04-29T04:11:00.319Z,1012.24
2017-04-29T04:11:40.841Z,1012.23
2017-04-29T04:12:21.376Z,1012.21
2017-04-29T04:13:01.897Z,1012.21
2017-04-29T04:13:42.410Z,1012.19
2017-04-29T04:14:22.944Z,1012.19
2017-04-29T04:15:03.464Z,1012.19
2017-04-29T04:15:43.990Z,1012.18
2017-04-29T04:16:24.503Z,1012.23
2017-04-29T04:17:05.026Z,1012.19
2017-04-29T04:17:45.543Z,1012.19
2017-04-29T04:18:26.070Z,1012.22
2017-04-29T04:19:06.597Z,1012.2
2017-04-29T04:19:47.127Z,1012.2
2017-04-29T04:20:27.643Z,1012.22
2017-04-29T04:21:08.156Z,1012.18
2017-04-29T04:21:48.681Z,1012.17
2017-04-29T04:22:29.192Z,1012.2
2017-04-29T04:23:09.703Z,1012.18
2017-04-29T04:23:50.222Z,1012.2
2017-04-29T04:24:30.741Z,1012.21
2017-04-29T04:25:11.252Z,1012.24
2017-04-29T04:25:51.772Z,1012.23
2017-04-29T04:26:32.269Z,1012.26
2017-04-29T04:27:12.798Z,1012.25
2017-04-29T04:27:53.322Z,1012.23
2017-04-29T04:28:33.850Z,1012.23
2017-04-29T04:29:14.364Z,1012.23
2017-04-29T04:29:54.890Z,1012.22
2017-04-29T04:30:35.447Z,1012.23
2017-04-29T04:31:15.929Z,1012.26
2017-04-29T04:31:56.450Z,1012.3
2017-04-29T04:32:36.978Z,1012.24
2017-04-29T04:33:17.512Z,1012.23
2017-04-29T04:33:58.052Z,1012.23
2017-04-29T04:34:38.547Z,1012.24
2017-04-29T04:35:19.077Z,1012.25
2017-04-29T04:35:59.586Z,1012.27
2017-04-29T04:36:40.138Z,1012.28
2017-04-29T04:37:20.607Z,1012.24
2017-04-29T04:38:01.151Z,1012.25
2017-04-29T04:38:41.637Z,1012.18
2017-04-29T04:39:22.132Z,1012.2
2017-04-29T04:40:02.659Z,1012.17
2017-04-29T04:40:43.169Z,1012.16
2017-04-29T04:41:23.645Z,1012.21
2017-04-29T04:42:04.154Z,1012.18
2017-04-29T04:42:44.658Z,1012.17
2017-04-29T04:43:25.187Z,1012.22
2017-04-29T04:44:05.677Z,1012.22
2017-04-29T04:44:46.194Z,1012.2
2017-04-29T04:45:26.720Z,1012.19
2017-04-29T04:46:07.233Z,1012.22
2017-04-29T04:46:47.812Z,1012.19
2017-04-29T04:47:28.357Z,1012.22
2017-04-29T04:48:08.857Z,1012.25
2017-04-29T04:48:49.387Z,1012.24
2017-04-29T04:49:29.903Z,1012.21
2017-04-29T04:50:10.477Z,1012.25
2017-04-29T04:50:51.047Z,1012.27
2017-04-29T04:51:31.508Z,1012.28
2017-04-29T04:52:12.007Z,1012.2
2017-04-29T04:52:52.573Z,1012.25
2017-04-29T04:53:33.099Z,1012.28
2017-04-29T04:54:13.607Z,1012.29
2017-04-29T04:54:54.150Z,1012.28
2017-04-29T04:55:34.695Z,1012.31
2017-04-29T04:56:15.184Z,1012.27
2017-04-29T04:56:55.710Z,1012.26
2017-04-29T04:57:36.238Z,1012.25
2017-04-29T04:58:16.743Z,1012.25
2017-04-29T04:58:57.275Z,1012.29
2017-04-29T04:59:37.836Z,1012.3
2017-04-29T05:00:18.268Z,1012.28
2017-04-29T05:00:58.767Z,1012.3
2017-04-29T05:01:39.268Z,1012.28
2017-04-29T05:02:19.812Z,1012.29
2017-04-29T05:03:00.344Z,1012.3
2017-04-29T05:03:40.878Z,1012.32
2017-04-29T05:04:21.404Z,1012.35
2017-04-29T05:05:01.938Z,1012.33
2017-04-29T05:05:42.483Z,1012.25
2017-04-29T05:06:23.014Z,1012.31
2017-04-29T05:07:03.550Z,1012.34
2017-04-29T05:07:44.058Z,1012.33
2017-04-29T05:08:24.585Z,1012.33
2017-04-29T05:09:05.113Z,1012.36
2017-04-29T05:09:45.639Z,1012.34
2017-04-29T05:10:26.177Z,1012.35
2017-04-29T05:11:06.686Z,1012.34
2017-04-29T05:11:47.213Z,1012.33
2017-04-29T05:12:27.743Z,1012.34
2017-04-29T05:13:08.271Z,1012.37
2017-04-29T05:13:48.792Z,1012.41
2017-04-29T05:14:29.331Z,1012.37
2017-04-29T05:15:09.863Z,1012.39
2017-04-29T05:15:50.371Z,1012.42
2017-04-29T05:16:30.882Z,1012.4
2017-04-29T05:17:11.403Z,1012.39
2017-04-29T05:17:51.914Z,1012.4
2017-04-29T05:18:32.449Z,1012.43
2017-04-29T05:19:12.975Z,1012.4
2017-04-29T05:19:53.488Z,1012.36
2017-04-29T05:20:34.006Z,1012.37
2017-04-29T05:21:14.523Z,1012.37
2017-04-29T05:21:55.069Z,1012.39
2017-04-29T05:22:35.596Z,1012.34
2017-04-29T05:23:16.122Z,1012.36
2017-04-29T05:23:56.648Z,1012.35
2017-04-29T05:24:37.168Z,1012.38
2017-04-29T05:25:17.704Z,1012.35
2017-04-29T05:25:58.232Z,1012.39
2017-04-29T05:26:38.768Z,1012.37
2017-04-29T05:27:19.301Z,1012.35
2017-04-29T05:27:59.821Z,1012.35
2017-04-29T05:28:40.363Z,1012.4
2017-04-29T05:29:20.900Z,1012.35
2017-04-29T05:30:01.433Z,1012.42
2017-04-29T05:30:41.962Z,1012.39
2017-04-29T05:31:22.485Z,1012.39
2017-04-29T05:32:03.021Z,1012.42
2017-04-29T05:32:43.563Z,1012.44
2017-04-29T05:33:24.094Z,1012.43
2017-04-29T05:34:04.620Z,1012.43
2017-04-29T05:34:45.146Z,1012.45
2017-04-29T05:35:25.664Z,1012.39
2017-04-29T05:36:06.187Z,1012.43
2017-04-29T05:36:46.690Z,1012.42
2017-04-29T05:37:27.206Z,1012.4
2017-04-29T05:38:07.726Z,1012.41
2017-04-29T05:38:48.246Z,1012.42
2017-04-29T05:39:28.776Z,1012.4
2017-04-29T05:40:09.315Z,1012.42
2017-04-29T05:40:49.836Z,1012.42
2017-04-29T05:41:30.353Z,1012.44
2017-04-29T05:42:10.876Z,1012.42
2017-04-29T05:42:51.412Z,1012.45
2017-04-29T05:43:31.946Z,1012.42
2017-04-29T05:44:12.481Z,1012.42
2017-04-29T05:44:53.003Z,1012.43
2017-04-29T05:45:33.542Z,1012.42
2017-04-29T05:46:14.068Z,1012.41
2017-04-29T05:46:54.600Z,1012.46
2017-04-29T05:47:35.127Z,1012.45
2017-04-29T05:48:15.655Z,1012.41
2017-04-29T05:48:56.191Z,1012.45
2017-04-29T05:49:36.726Z,1012.45
2017-04-29T05:50:17.259Z,1012.44
2017-04-29T05:50:57.788Z,1012.44
2017-04-29T05:51:38.304Z,1012.43
2017-04-29T05:52:18.998Z,1012.46
2017-04-29T05:52:59.717Z,1012.47
2017-04-29T05:53:40.255Z,1012.45
2017-04-29T05:54:20.792Z,1012.48
2017-04-29T05:55:01.325Z,1012.47
2017-04-29T05:55:41.843Z,1012.46
2017-04-29T05:56:22.379Z,1012.45
2017-04-29T05:57:02.885Z,1012.46
2017-04-29T05:57:43.407Z,1012.48
2017-04-29T05:58:23.936Z,1012.5
2017-04-29T05:59:04.467Z,1012.48
2017-04-29T05:59:44.988Z,1012.49
2017-04-29T06:00:25.523Z,1012.48
2017-04-29T06:01:06.025Z,1012.51
2017-04-29T06:01:46.574Z,1012.5
2017-04-29T06:02:27.095Z,1012.48
2017-04-29T06:03:07.657Z,1012.48
2017-04-29T06:03:48.181Z,1012.51
2017-04-29T06:04:28.711Z,1012.52
2017-04-29T06:05:09.294Z,1012.56
2017-04-29T06:05:49.901Z,1012.57
2017-04-29T06:06:30.405Z,1012.58
2017-04-29T06:07:10.940Z,1012.61
2017-04-29T06:07:51.475Z,1012.6
2017-04-29T06:08:31.998Z,1012.59
2017-04-29T06:09:12.526Z,1012.55
2017-04-29T06:09:53.062Z,1012.56
2017-04-29T06:10:33.591Z,1012.53
2017-04-29T06:11:14.119Z,1012.54
2017-04-29T06:11:54.676Z,1012.54
2017-04-29T06:12:35.215Z,1012.55
2017-04-29T06:13:15.752Z,1012.51
2017-04-29T06:13:56.255Z,1012.51
2017-04-29T06:14:36.776Z,1012.52
2017-04-29T06:15:17.304Z,1012.49
2017-04-29T06:15:57.831Z,1012.53
2017-04-29T06:16:38.379Z,1012.52
2017-04-29T06:17:18.905Z,1012.51
2017-04-29T06:17:59.447Z,1012.57
2017-04-29T06:18:39.986Z,1012.56
2017-04-29T06:19:20.509Z,1012.56
2017-04-29T06:20:01.054Z,1012.57
2017-04-29T06:20:41.587Z,1012.56
2017-04-29T06:21:22.113Z,1012.58
2017-04-29T06:22:02.648Z,1012.55
2017-04-29T06:22:43.180Z,1012.58
2017-04-29T06:23:23.705Z,1012.59
2017-04-29T06:24:04.228Z,1012.65
2017-04-29T06:24:44.773Z,1012.61
2017-04-29T06:25:25.263Z,1012.6
2017-04-29T06:26:05.776Z,1012.62
2017-04-29T06:26:46.301Z,1012.61
2017-04-29T06:27:26.814Z,1012.61
2017-04-29T06:28:07.352Z,1012.61
2017-04-29T06:28:47.842Z,1012.58
2017-04-29T06:29:28.364Z,1012.58
2017-04-29T06:30:08.886Z,1012.6
2017-04-29T06:30:49.419Z,1012.61
2017-04-29T06:31:29.935Z,1012.64
2017-04-29T06:32:10.454Z,1012.61
2017-04-29T06:32:51.010Z,1012.64
2017-04-29T06:33:31.516Z,1012.64
2017-04-29T06:34:12.046Z,1012.67
2017-04-29T06:34:52.578Z,1012.67
2017-04-29T06:35:33.701Z,1012.7
2017-04-29T06:36:14.238Z,1012.68
2017-04-29T06:36:54.758Z,1012.72
2017-04-29T06:37:35.284Z,1012.69
2017-04-29T06:38:15.804Z,1012.67
2017-04-29T06:38:56.385Z,1012.7
2017-04-29T06:39:36.907Z,1012.73
2017-04-29T06:40:17.444Z,1012.68
2017-04-29T06:40:57.977Z,1012.68
2017-04-29T06:41:38.514Z,1012.71
2017-04-29T06:42:19.036Z,1012.69
2017-04-29T06:42:59.563Z,1012.71
2017-04-29T06:43:40.100Z,1012.69
2017-04-29T06:44:20.633Z,1012.68
2017-04-29T06:45:01.164Z,1012.71
2017-04-29T06:45:41.702Z,1012.74
2017-04-29T06:46:22.222Z,1012.73
2017-04-29T06:47:02.744Z,1012.72
2017-04-29T06:47:43.260Z,1012.74
2017-04-29T06:48:23.774Z,1012.71
2017-04-29T06:49:04.310Z,1012.73
2017-04-29T06:49:44.901Z,1012.71
2017-04-29T06:50:25.421Z,1012.7
2017-04-29T06:51:05.983Z,1012.75
2017-04-29T06:51:46.536Z,1012.69
2017-04-29T06:52:27.077Z,1012.72
2017-04-29T06:53:07.572Z,1012.72
2017-04-29T06:53:48.111Z,1012.75
2017-04-29T06:54:28.645Z,1012.71
2017-04-29T06:55:09.175Z,1012.71
2017-04-29T06:55:49.716Z,1012.7
2017-04-29T06:56:30.245Z,1012.69
2017-04-29T06:57:10.776Z,1012.72
2017-04-29T06:57:51.318Z,1012.68
2017-04-29T06:58:31.818Z,1012.69
2017-04-29T06:59:12.356Z,1012.7
2017-04-29T06:59:52.892Z,1012.71
2017-04-29T07:00:33.451Z,1012.69
2017-04-29T07:01:13.986Z,1012.67
2017-04-29T07:01:54.528Z,1012.71
2017-04-29T07:02:35.046Z,1012.72
2017-04-29T07:03:15.574Z,1012.69
2017-04-29T07:03:56.113Z,1012.71
2017-04-29T07:04:36.653Z,1012.71
2017-04-29T07:05:17.229Z,1012.71
2017-04-29T07:05:57.797Z,1012.67
2017-04-29T07:06:38.299Z,1012.69
2017-04-29T07:07:18.832Z,1012.7
2017-04-29T07:08:00.176Z,1012.69
2017-04-29T07:08:41.230Z,1012.67
2017-04-29T07:09:22.299Z,1012.71
2017-04-29T07:10:03.758Z,1012.67
2017-04-29T07:10:44.878Z,1012.63
2017-04-29T07:11:25.403Z,1012.67
2017-04-29T07:12:05.907Z,1012.67
2017-04-29T07:12:46.437Z,1012.68
2017-04-29T07:13:26.957Z,1012.71
2017-04-29T07:14:07.501Z,1012.69
2017-04-29T07:14:48.013Z,1012.69
2017-04-29T07:15:28.539Z,1012.71
2017-04-29T07:16:09.064Z,1012.68
2017-04-29T07:16:49.606Z,1012.67
2017-04-29T07:17:30.147Z,1012.66
2017-04-29T07:18:10.680Z,1012.68
2017-04-29T07:18:51.216Z,1012.67
2017-04-29T07:19:31.755Z,1012.7
2017-04-29T07:20:12.291Z,1012.7
2017-04-29T07:20:52.821Z,1012.68
2017-04-29T07:21:33.361Z,1012.72
2017-04-29T07:22:13.964Z,1012.75
2017-04-29T07:22:54.515Z,1012.75
2017-04-29T07:23:35.049Z,1012.69
2017-04-29T07:24:15.584Z,1012.71
2017-04-29T07:24:56.109Z,1012.69
2017-04-29T07:25:36.649Z,1012.72
2017-04-29T07:26:17.176Z,1012.66
2017-04-29T07:26:57.718Z,1012.68
2017-04-29T07:27:38.250Z,1012.71
2017-04-29T07:28:18.788Z,1012.71
2017-04-29T07:28:59.305Z,1012.69
2017-04-29T07:29:39.855Z,1012.68
2017-04-29T07:30:20.375Z,1012.66
2017-04-29T07:31:00.910Z,1012.69
2017-04-29T07:31:41.450Z,1012.69
2017-04-29T07:32:21.990Z,1012.69
2017-04-29T07:33:02.530Z,1012.7
2017-04-29T07:33:43.063Z,1012.71
2017-04-29T07:34:23.585Z,1012.67
2017-04-29T07:35:04.125Z,1012.68
2017-04-29T07:35:44.643Z,1012.69
2017-04-29T07:36:25.175Z,1012.71
2017-04-29T07:37:05.749Z,1012.71
2017-04-29T07:37:46.286Z,1012.71
2017-04-29T07:38:26.827Z,1012.7
2017-04-29T07:39:07.363Z,1012.67
2017-04-29T07:39:47.883Z,1012.67
2017-04-29T07:40:28.416Z,1012.65
2017-04-29T07:41:08.949Z,1012.64
2017-04-29T07:41:49.488Z,1012.64
2017-04-29T07:42:30.017Z,1012.63
2017-04-29T07:43:10.626Z,1012.63
2017-04-29T07:43:51.163Z,1012.68
2017-04-29T07:44:31.711Z,1012.64
2017-04-29T07:45:12.263Z,1012.64
2017-04-29T07:45:52.801Z,1012.62
2017-04-29T07:46:33.346Z,1012.63
2017-04-29T07:47:13.884Z,1012.66
2017-04-29T07:47:54.406Z,1012.63
2017-04-29T07:48:34.939Z,1012.65
2017-04-29T07:49:15.473Z,1012.64
2017-04-29T07:49:56.006Z,1012.64
2017-04-29T07:50:36.547Z,1012.66
2017-04-29T07:51:17.087Z,1012.67
2017-04-29T07:51:57.619Z,1012.66
2017-04-29T07:52:38.147Z,1012.67
2017-04-29T07:53:18.682Z,1012.65
2017-04-29T07:53:59.230Z,1012.65
2017-04-29T07:54:39.756Z,1012.68
2017-04-29T07:55:20.290Z,1012.7
2017-04-29T07:56:00.822Z,1012.69
2017-04-29T07:56:41.350Z,1012.74
2017-04-29T07:57:21.911Z,1012.69
2017-04-29T07:58:02.450Z,1012.68
2017-04-29T07:58:42.983Z,1012.71
2017-04-29T07:59:23.530Z,1012.68
2017-04-29T08:00:04.078Z,1012.72
2017-04-29T08:00:44.618Z,1012.72
2017-04-29T08:01:25.149Z,1012.75
2017-04-29T08:02:05.661Z,1012.7
2017-04-29T08:02:46.202Z,1012.71
2017-04-29T08:03:26.732Z,1012.66
2017-04-29T08:04:07.260Z,1012.69
2017-04-29T08:04:47.778Z,1012.67
2017-04-29T08:05:28.286Z,1012.66
2017-04-29T08:06:08.827Z,1012.65
2017-04-29T08:06:49.384Z,1012.69
2017-04-29T08:07:29.918Z,1012.64
2017-04-29T08:08:10.464Z,1012.65
2017-04-29T08:08:51.011Z,1012.63
2017-04-29T08:09:31.525Z,1012.66
2017-04-29T08:10:12.075Z,1012.65
2017-04-29T08:10:52.607Z,1012.68
2017-04-29T08:11:33.146Z,1012.64
2017-04-29T08:12:13.715Z,1012.71